createdAt,value
2017-01-10T00:00:03.512Z,81.76
2017-01-10T00:05:03.380Z,81.76
2017-01-10T00:10:03.204Z,81.76
2017-01-10T00:15:03.012Z,81.86
2017-01-10T00:20:03.668Z,82.05
2017-01-10T00:25:03.656Z,82.05
2017-01-10T00:30:03.423Z,82.05
2017-01-10T00:35:03.205Z,82.14
2017-01-10T00:40:03.254Z,82.14
2017-01-10T00:45:03.084Z,82.33
2017-01-10T00:50:03.002Z,82.24
2017-01-10T00:55:02.847Z,82.24
2017-01-10T01:00:02.756Z,81.86
2017-01-10T01:05:03.566Z,81.76
2017-01-10T01:10:03.482Z,81.67
2017-01-10T01:15:03.391Z,81.38
2017-01-10T01:20:03.413Z,81.2
2017-01-10T01:25:03.242Z,81.1
2017-01-10T01:30:03.171Z,81.1
2017-01-10T01:35:02.952Z,81.2
2017-01-10T01:40:03.000Z,81.2
2017-01-10T01:45:02.772Z,81.2
2017-01-10T01:50:03.570Z,81.1
2017-01-10T01:55:03.313Z,81.2
2017-01-10T02:00:02.803Z,81.2
2017-01-10T02:05:03.557Z,81.01
2017-01-10T02:10:03.346Z,81.1
2017-01-10T02:15:03.320Z,81.1
2017-01-10T02:20:03.236Z,81.57
2017-01-10T02:25:02.929Z,81.86
2017-01-10T02:30:02.877Z,82.14
2017-01-10T02:35:03.749Z,82.52
2017-01-10T02:40:03.761Z,82.62
2017-01-10T02:45:03.613Z,83.09
2017-01-10T02:50:03.578Z,83.56
2017-01-10T02:55:03.422Z,83.85
2017-01-10T03:00:03.166Z,83.94
2017-01-10T03:05:03.014Z,84.42
2017-01-10T03:10:03.594Z,84.51
2017-01-10T03:15:03.586Z,84.13
2017-01-10T03:20:03.428Z,83.85
2017-01-10T03:25:03.500Z,83.75
2017-01-10T03:30:03.455Z,83.85
2017-01-10T03:35:03.336Z,83.75
2017-01-10T03:40:03.346Z,83.75
2017-01-10T03:45:02.866Z,83.75
2017-01-10T03:50:03.771Z,83.75
2017-01-10T03:55:03.679Z,83.66
2017-01-10T04:00:03.454Z,83.66
2017-01-10T04:05:03.042Z,83.66
2017-01-10T04:10:03.664Z,83.56
2017-01-10T04:15:03.579Z,83.28
2017-01-10T04:20:03.368Z,83
2017-01-10T04:25:02.920Z,82.43
2017-01-10T04:30:03.726Z,82.14
2017-01-10T04:35:03.393Z,81.76
2017-01-10T04:40:03.353Z,81.57
2017-01-10T04:45:03.264Z,81.2
2017-01-10T04:50:03.094Z,81.01
2017-01-10T04:55:02.975Z,80.91
2017-01-10T05:00:02.841Z,80.72
2017-01-10T05:05:03.819Z,80.63
2017-01-10T05:10:03.367Z,80.53
2017-01-10T05:15:03.173Z,80.53
2017-01-10T05:20:02.969Z,80.34
2017-01-10T05:25:02.776Z,80.25
2017-01-10T05:30:03.331Z,80.25
2017-01-10T05:35:03.165Z,80.25
2017-01-10T05:40:02.940Z,80.06
2017-01-10T05:45:03.095Z,79.87
2017-01-10T05:50:03.639Z,79.82
2017-01-10T05:55:03.507Z,79.63
2017-01-10T06:00:03.350Z,79.44
2017-01-10T06:05:03.040Z,79.34
2017-01-10T06:10:02.953Z,79.25
2017-01-10T06:15:02.773Z,79.25
2017-01-10T06:20:03.576Z,79.15
2017-01-10T06:25:03.439Z,79.15
2017-01-10T06:30:03.328Z,79.15
2017-01-10T06:35:02.892Z,79.15
2017-01-10T06:40:02.899Z,79.15
2017-01-10T06:45:03.558Z,79.06
2017-01-10T06:50:03.099Z,79.06
2017-01-10T06:55:02.884Z,79.06
2017-01-10T07:00:03.702Z,79.06
2017-01-10T07:05:03.597Z,79.15
2017-01-10T07:10:03.497Z,79.15
2017-01-10T07:15:03.371Z,79.25
2017-01-10T07:20:03.283Z,79.34
2017-01-10T07:25:03.079Z,79.34
2017-01-10T07:30:02.972Z,79.44
2017-01-10T07:35:03.721Z,79.53
2017-01-10T07:40:03.606Z,79.53
2017-01-10T07:45:03.528Z,79.53
2017-01-10T07:50:03.179Z,79.34
2017-01-10T07:55:02.773Z,79.44
2017-01-10T08:00:03.562Z,79.63
2017-01-10T08:05:03.353Z,79.77
2017-01-10T08:10:02.947Z,79.87
2017-01-10T08:15:02.784Z,80.06
2017-01-10T08:20:03.578Z,80.34
2017-01-10T08:25:03.253Z,80.53
2017-01-10T08:30:02.897Z,80.63
2017-01-10T08:35:03.550Z,80.53
2017-01-10T08:40:03.182Z,80.91
2017-01-10T08:45:03.730Z,80.76
2017-01-10T08:50:03.570Z,81.33
2017-01-10T08:55:03.393Z,82.24
2017-01-10T09:00:03.271Z,81.9
2017-01-10T09:05:03.135Z,81.71
2017-01-10T09:10:02.705Z,82.09
2017-01-10T09:15:03.264Z,82.52
2017-01-10T09:20:02.826Z,82.71
2017-01-10T09:25:03.671Z,82.37
2017-01-10T09:30:03.412Z,82.56
2017-01-10T09:35:03.111Z,83.13
2017-01-10T09:40:02.947Z,83.7
2017-01-10T09:45:02.783Z,85.22
2017-01-10T09:50:03.568Z,86.63
2017-01-10T09:55:03.364Z,95.31
2017-01-10T10:00:02.974Z,99.99
2017-01-10T10:05:02.862Z,99.99
2017-01-10T10:10:02.855Z,99.99
2017-01-10T10:15:03.571Z,99.99
2017-01-10T10:20:03.579Z,99.99
2017-01-10T10:25:02.762Z,99.99
2017-01-10T10:30:02.710Z,99.99
2017-01-10T10:35:02.894Z,99.99
2017-01-10T10:40:03.483Z,99.99
2017-01-10T10:45:03.568Z,99.99
2017-01-10T10:50:02.823Z,99.99
2017-01-10T10:55:04.867Z,99.99
2017-01-10T11:00:03.162Z,99.99
2017-01-10T11:05:03.028Z,99.99
2017-01-10T11:10:03.017Z,99.99
2017-01-10T11:15:03.574Z,99.99
2017-01-10T11:20:03.443Z,99.99
2017-01-10T11:25:03.210Z,99.99
2017-01-10T11:30:02.739Z,99.99
2017-01-10T11:35:03.362Z,99.99
2017-01-10T11:40:02.781Z,99.99
2017-01-10T11:45:02.947Z,99.99
2017-01-10T11:50:03.139Z,99.99
2017-01-10T11:55:03.413Z,99.99
2017-01-10T12:00:03.206Z,99.99
2017-01-10T12:05:03.230Z,99.99
2017-01-10T12:10:02.753Z,99.99
2017-01-10T12:15:03.357Z,99.99
2017-01-10T12:20:03.087Z,99.99
2017-01-10T12:25:03.089Z,99.99
2017-01-10T12:30:03.615Z,99.99
2017-01-10T12:35:03.329Z,99.99
2017-01-10T12:40:03.069Z,99.99
2017-01-10T12:45:03.411Z,99.99
2017-01-10T12:50:03.179Z,99.99
2017-01-10T12:55:02.994Z,99.99
2017-01-10T13:00:03.474Z,99.99
2017-01-10T13:05:03.243Z,99.99
2017-01-10T13:10:02.874Z,99.99
2017-01-10T13:15:03.292Z,99.99
2017-01-10T13:20:03.370Z,99.99
2017-01-10T13:25:03.681Z,99.99
2017-01-10T13:30:03.095Z,99.99
2017-01-10T13:35:03.671Z,99.99
2017-01-10T13:40:03.217Z,99.99
2017-01-10T13:45:03.672Z,99.99
2017-01-10T13:50:03.380Z,99.99
2017-01-10T13:55:02.861Z,99.99
2017-01-10T14:00:03.541Z,99.99
2017-01-10T14:05:03.153Z,99.99
2017-01-10T14:10:03.613Z,99.99
2017-01-10T14:15:03.052Z,99.99
2017-01-10T14:20:03.556Z,99.99
2017-01-10T14:25:03.426Z,99.99
2017-01-10T14:30:03.010Z,99.99
2017-01-10T14:35:03.338Z,99.99
2017-01-10T14:40:03.706Z,99.99
2017-01-10T14:45:03.254Z,99.99
2017-01-10T14:50:02.937Z,99.99
2017-01-10T14:55:03.492Z,99.99
2017-01-10T15:00:02.859Z,99.99
2017-01-10T15:05:03.161Z,99.99
2017-01-10T15:10:02.895Z,99.99
2017-01-10T15:15:03.534Z,99.99
2017-01-10T15:20:03.262Z,99.99
2017-01-10T15:25:02.800Z,99.99
2017-01-10T15:30:03.423Z,99.99
2017-01-10T15:35:03.056Z,99.99
2017-01-10T15:40:02.808Z,99.99
2017-01-10T15:45:03.516Z,99.99
2017-01-10T15:50:03.095Z,99.99
2017-01-10T15:55:03.607Z,99.99
2017-01-10T16:00:03.406Z,99.99
2017-01-10T16:05:03.024Z,99.99
2017-01-10T16:10:02.752Z,99.99
2017-01-10T16:15:03.115Z,99.99
2017-01-10T16:20:03.510Z,99.99
2017-01-10T16:25:03.094Z,99.99
2017-01-10T16:30:02.837Z,99.99
2017-01-10T16:35:02.984Z,99.99
2017-01-10T16:40:02.888Z,99.99
2017-01-10T16:45:03.449Z,99.99
2017-01-10T16:50:03.600Z,99.99
2017-01-10T16:55:03.118Z,99.99
2017-01-10T17:00:03.756Z,99.99
2017-01-10T17:05:03.483Z,99.99
2017-01-10T17:10:03.087Z,99.99
2017-01-10T17:15:03.391Z,99.99
2017-01-10T17:20:02.909Z,99.99
2017-01-10T17:25:03.350Z,99.99
2017-01-10T17:30:02.771Z,99.99
2017-01-10T17:35:03.494Z,99.99
2017-01-10T17:40:03.113Z,99.99
2017-01-10T17:45:03.628Z,99.99
2017-01-10T17:50:02.815Z,99.99
2017-01-10T17:55:03.396Z,99.99
2017-01-10T18:00:02.888Z,99.99
2017-01-10T18:05:03.381Z,99.99
2017-01-10T18:10:03.025Z,99.99
2017-01-10T18:15:03.321Z,99.63
2017-01-10T18:20:03.713Z,99.15
2017-01-10T18:25:03.250Z,98.39
2017-01-10T18:30:03.546Z,98.21
2017-01-10T18:35:03.696Z,97.54
2017-01-10T18:40:03.472Z,97.45
2017-01-10T18:45:02.923Z,97.07
2017-01-10T18:50:03.552Z,96.5
2017-01-10T18:55:03.522Z,95.93
2017-01-10T19:00:03.400Z,95.65
2017-01-10T19:05:03.478Z,95.65
2017-01-10T19:10:03.209Z,95.74
2017-01-10T19:15:02.842Z,95.45
2017-01-10T19:20:03.180Z,95.07
2017-01-10T19:25:03.249Z,94.98
2017-01-10T19:30:03.579Z,94.79
2017-01-10T19:35:03.580Z,94.79
2017-01-10T19:40:03.723Z,94.51
2017-01-10T19:45:03.401Z,94.13
2017-01-10T19:50:02.851Z,93.84
2017-01-10T19:55:03.514Z,93.75
2017-01-10T20:00:03.670Z,93.46
2017-01-10T20:05:02.858Z,93.37
2017-01-10T20:10:03.900Z,93.18
2017-01-10T20:15:03.290Z,93.08
2017-01-10T20:20:02.744Z,92.9
2017-01-10T20:25:03.720Z,92.61
2017-01-10T20:30:03.717Z,92.14
2017-01-10T20:35:03.562Z,91.95
2017-01-10T20:40:03.247Z,91.76
2017-01-10T20:45:03.078Z,91.38
2017-01-10T20:50:02.867Z,91.28
2017-01-10T20:55:02.818Z,91.19
2017-01-10T21:00:03.540Z,91
2017-01-10T21:05:03.491Z,90.91
2017-01-10T21:10:03.578Z,90.81
2017-01-10T21:15:03.461Z,90.72
2017-01-10T21:20:03.023Z,90.62
2017-01-10T21:25:02.968Z,90.34
2017-01-10T21:30:02.746Z,90.15
2017-01-10T21:35:03.597Z,90.15
2017-01-10T21:40:03.340Z,90.05
2017-01-10T21:45:03.256Z,89.86
2017-01-10T21:50:02.908Z,89.86
2017-01-10T21:55:03.597Z,89.77
2017-01-10T22:00:03.294Z,89.67
2017-01-10T22:05:03.039Z,89.58
2017-01-10T22:10:03.587Z,89.48
2017-01-10T22:15:03.365Z,89.48
2017-01-10T22:20:02.909Z,89.39
2017-01-10T22:25:02.748Z,89.39
2017-01-10T22:30:03.398Z,89.2
2017-01-10T22:35:03.143Z,89.01
2017-01-10T22:40:02.884Z,88.92
2017-01-10T22:45:03.756Z,88.82
2017-01-10T22:50:03.429Z,88.73
2017-01-10T22:55:02.980Z,88.44
2017-01-10T23:00:02.733Z,88.25
2017-01-10T23:05:03.490Z,88.25
2017-01-10T23:10:03.445Z,88.25
2017-01-10T23:15:03.233Z,88.16
2017-01-10T23:20:03.001Z,88.06
2017-01-10T23:25:02.706Z,88.06
2017-01-10T23:30:03.447Z,87.77
2017-01-10T23:35:03.249Z,87.77
2017-01-10T23:40:02.786Z,87.77
2017-01-10T23:45:03.556Z,87.59
2017-01-10T23:50:03.111Z,87.59
2017-01-10T23:55:02.764Z,87.49
